Tuesday, January 22, 2019, 4:08 PM EST
Back to Local

KNYC, New York City Central Park

Location: New York, NY, United States Lat: 40.783
Local Time: 4:08 PM EST (21:08 GMT) Lon: -73.967
Time Zone: US/Eastern Elev: 157 ft

Show me the last for .
Show Coded

Time T Td Feel RH Dir Speed Gust Alt SLP Vis Weather Sky Remarks
2019-01-22 15:51 30 0 - 26 - - - 30.63 30.60 10 CLR None
2019-01-22 14:51 29 -1 - 26 - - - 30.63 30.61 10 CLR None
2019-01-22 13:51 28 -2 - 26 - - - 30.63 30.61 10 CLR None
2019-01-22 12:51 25 -2 - 30 - - - 30.65 30.63 10 CLR 6-hr Min Temp (1pm): 14.0°F
6-hr Max Temp (1pm): 26.1°F
2019-01-22 11:51 23 -1 - 34 - - - 30.66 30.64 10 CLR None
2019-01-22 10:51 20 -1 - 39 - - - 30.66 30.65 10 CLR None
2019-01-22 09:51 18 -1 - 42 - - - 30.66 30.64 10 CLR None
2019-01-22 08:51 16 1 - 50 - - - 30.67 30.65 10 CLR Pressure rising rapidly
2019-01-22 07:51 14 1 - 55 - - - 30.64 30.62 10 CLR Pressure rising rapidly
2019-01-22 06:51 14 1 - 55 - - - 30.61 30.59 10 CLR 6-hr Min Temp (7am): 12.9°F
6-hr Max Temp (7am): 15.1°F
2019-01-22 05:51 14 1 - 55 - - - 30.59 30.57 10 CLR None
2019-01-22 04:51 15 1 - 52 - - - 30.54 30.52 10 CLR Pressure rising rapidly
2019-01-22 03:51 15 1 - 52 - - - 30.49 30.47 10 CLR None
2019-01-22 02:51 14 1 - 55 - - - 30.46 30.44 10 CLR None
2019-01-22 01:51 13 0 - 55 - - - 30.44 30.42 10 CLR None
2019-01-22 00:51 14 -1 - 50 - - - 30.42 30.40 10 CLR 6-hr Min Temp (1am): 10.9°F
6-hr Max Temp (1am): 14.0°F
2019-01-21 23:51 14 -1 - 50 - - - 30.40 30.38 10 CLR 24-hr Min Temp (12am): 3.9°F
24-hr Max Temp (12am): 14.0°F
2019-01-21 22:51 13 -2 - 50 - - - 30.38 30.37 10 CLR None
2019-01-21 21:51 13 -3 - 48 - - - 30.37 30.35 10 CLR None
2019-01-21 20:51 12 -5 - 45 - - - 30.36 30.34 10 CLR Pressure rising rapidly
2019-01-21 19:51 11 -5 - 47 - - - 30.30 30.28 10 CLR Pressure rising rapidly
2019-01-21 18:51 11 -8 - 41 - - - 30.23 30.21 10 CLR 6-hr Min Temp (7pm): 10.0°F
6-hr Max Temp (7pm): 14.0°F
2019-01-21 17:51 12 -7 - 41 - - - 30.19 30.17 10 CLR None
2019-01-21 16:51 13 -8 - 37 - - - 30.17 30.15 10 CLR Pressure rising rapidly

Support USWX by starting your Amazon purchase here.